createdAt,value
2022-11-29T00:00:17.044Z,12.68
2022-11-29T00:03:59.050Z,8.80
2022-11-29T00:07:40.761Z,9.25
2022-11-29T00:11:48.984Z,13.27
2022-11-29T00:15:30.705Z,9.82
2022-11-29T00:19:12.861Z,9.80
2022-11-29T00:22:54.561Z,10.10
2022-11-29T00:26:37.169Z,6.63
2022-11-29T00:30:19.738Z,8.13
2022-11-29T00:34:02.834Z,6.70
2022-11-29T00:37:44.509Z,8.32
2022-11-29T00:41:26.472Z,9.70
2022-11-29T00:45:08.483Z,7.80
2022-11-29T00:48:50.136Z,6.45
2022-11-29T00:52:31.829Z,8.27
2022-11-29T00:56:13.589Z,6.43
2022-11-29T00:59:55.285Z,9.02
2022-11-29T01:03:37.292Z,6.50
2022-11-29T01:07:19.068Z,7.78
2022-11-29T01:11:21.413Z,7.25
2022-11-29T01:15:07.039Z,5.95
2022-11-29T01:18:48.716Z,5.07
2022-11-29T01:22:31.705Z,6.88
2022-11-29T01:26:21.252Z,7.70
2022-11-29T01:30:08.208Z,9.82
2022-11-29T01:34:10.665Z,6.53
2022-11-29T01:37:52.328Z,6.80
2022-11-29T01:41:35.323Z,13.07
2022-11-29T01:45:24.487Z,9.33
2022-11-29T01:49:16.984Z,5.93
2022-11-29T01:52:59.139Z,22.27
2022-11-29T01:56:40.928Z,80.78
2022-11-29T02:00:22.754Z,61.28
2022-11-29T02:04:04.806Z,65.47
2022-11-29T02:07:48.640Z,32.75
2022-11-29T02:11:44.260Z,14.00
2022-11-29T02:15:33.171Z,12.88
2022-11-29T02:19:42.533Z,13.45
2022-11-29T02:23:50.336Z,9.98
2022-11-29T02:27:44.152Z,10.27
2022-11-29T02:32:04.309Z,8.73
2022-11-29T02:35:54.917Z,9.93
2022-11-29T02:39:39.616Z,8.38
2022-11-29T02:43:39.900Z,7.93
2022-11-29T02:47:31.747Z,7.78
2022-11-29T02:51:58.817Z,7.43
2022-11-29T02:56:04.672Z,8.30
2022-11-29T02:59:58.966Z,9.90
2022-11-29T03:03:42.876Z,9.57
2022-11-29T03:07:33.703Z,12.68
2022-11-29T03:12:06.836Z,9.95
2022-11-29T03:16:06.665Z,7.43
2022-11-29T03:19:54.199Z,7.35
2022-11-29T03:23:57.384Z,10.15
2022-11-29T03:27:52.981Z,8.38
2022-11-29T03:31:41.976Z,9.48
2022-11-29T03:35:55.347Z,9.00
2022-11-29T03:40:04.631Z,8.32
2022-11-29T03:43:50.640Z,8.30
2022-11-29T03:47:42.572Z,9.68
2022-11-29T03:51:38.122Z,7.95
2022-11-29T03:55:32.981Z,10.00
2022-11-29T03:59:52.436Z,12.07
2022-11-29T04:03:44.592Z,10.98
2022-11-29T04:07:35.129Z,11.05
2022-11-29T04:11:58.781Z,9.35
2022-11-29T04:16:08.797Z,8.17
2022-11-29T04:20:19.608Z,12.77
2022-11-29T04:24:29.472Z,10.10
2022-11-29T04:28:48.744Z,8.75
2022-11-29T04:32:52.305Z,11.70
2022-11-29T04:37:02.173Z,9.10
2022-11-29T04:40:55.264Z,7.82
2022-11-29T04:44:39.125Z,10.47
2022-11-29T04:52:40.592Z,9.77
2022-11-29T04:56:41.051Z,8.07
2022-11-29T05:00:23.637Z,6.18
2022-11-29T05:04:23.170Z,4.88
2022-11-29T05:08:42.667Z,5.07
2022-11-29T05:12:43.345Z,5.40
2022-11-29T05:16:48.087Z,6.13
2022-11-29T05:20:47.309Z,6.90
2022-11-29T05:24:58.129Z,6.03
2022-11-29T05:29:00.926Z,6.25
2022-11-29T05:33:23.349Z,5.28
2022-11-29T05:37:20.029Z,6.03
2022-11-29T05:41:23.056Z,7.13
2022-11-29T05:45:12.547Z,6.47
2022-11-29T05:49:13.147Z,7.25
2022-11-29T05:53:04.542Z,7.30
2022-11-29T05:56:58.483Z,5.80
2022-11-29T06:04:33.194Z,5.22
2022-11-29T06:08:31.710Z,7.80
2022-11-29T06:12:21.234Z,6.93
2022-11-29T06:16:30.986Z,7.00
2022-11-29T06:20:42.577Z,5.63
2022-11-29T06:24:35.505Z,5.05
2022-11-29T06:28:28.650Z,6.57
2022-11-29T06:32:36.877Z,12.30
2022-11-29T06:36:22.179Z,13.13
2022-11-29T06:40:05.333Z,12.05
2022-11-29T06:43:47.277Z,17.45
2022-11-29T06:47:43.765Z,19.92
2022-11-29T06:51:33.349Z,18.25
2022-11-29T06:55:33.725Z,25.40
2022-11-29T06:59:43.048Z,30.05
2022-11-29T07:03:49.273Z,17.90
2022-11-29T07:07:31.456Z,18.35
2022-11-29T07:11:14.230Z,18.65
2022-11-29T07:14:56.293Z,21.67
2022-11-29T07:18:47.576Z,20.20
2022-11-29T07:22:32.326Z,21.50
2022-11-29T07:26:29.168Z,20.35
2022-11-29T07:30:12.987Z,26.52
